Rockwood, Maine
Current Conditions -  °F | °C
As of 8:53 AM on Friday 19 Dec 2014 (Local Time) from KBGR Reporting Station
Overcast Overcast  
Wind Chill: 17°   Ceiling: 2300
Heat Index: 28°   Visibility: 10mi
Dew Point: 23°   Wind: 13mph
Humidity: 81%   Direction: 310°NW
Pressure: 29.88"   Gusts: NA
Location:  45.68°N, 69.74°W
Report Text: KBGR 191353Z 31011KT 10SM OVC023 M02/M05 A2988 RMK AO2 SLP122 T10221050
Loading
Personal Weather Stations






























Interactive Weather Map New forecast layout! Learn more

10-Day Weather Forecast

Advertisements
Track Severe Weather on mobile